sensor_id;sensor_type;location;lat;lon;timestamp;pressure;altitude;pressure_sealevel;temperature;humidity
80745;BME280;70143;52.396;16.950;2023-06-10T00:00:00;100540.63;;;19.95;53.37
80745;BME280;70143;52.396;16.950;2023-06-10T00:02:28;100541.91;;;19.89;53.33
80745;BME280;70143;52.396;16.950;2023-06-10T00:04:53;100541.50;;;19.82;53.63
80745;BME280;70143;52.396;16.950;2023-06-10T00:07:19;100548.03;;;19.77;53.67
80745;BME280;70143;52.396;16.950;2023-06-10T00:09:44;100544.75;;;19.60;54.20
80745;BME280;70143;52.396;16.950;2023-06-10T00:12:10;100541.06;;;19.50;54.23
80745;BME280;70143;52.396;16.950;2023-06-10T00:14:37;100528.41;;;19.41;54.04
80745;BME280;70143;52.396;16.950;2023-06-10T00:17:03;100547.59;;;19.31;54.19
80745;BME280;70143;52.396;16.950;2023-06-10T00:19:28;100540.06;;;19.25;54.43
80745;BME280;70143;52.396;16.950;2023-06-10T00:21:54;100548.66;;;19.16;54.72
80745;BME280;70143;52.396;16.950;2023-06-10T00:24:19;100549.47;;;19.04;55.33
80745;BME280;70143;52.396;16.950;2023-06-10T00:26:44;100551.03;;;18.93;55.67
80745;BME280;70143;52.396;16.950;2023-06-10T00:29:10;100546.41;;;18.83;55.98
80745;BME280;70143;52.396;16.950;2023-06-10T00:31:37;100549.81;;;18.85;56.30
80745;BME280;70143;52.396;16.950;2023-06-10T00:34:02;100551.81;;;18.81;56.53
80745;BME280;70143;52.396;16.950;2023-06-10T00:36:28;100556.38;;;18.79;57.14
80745;BME280;70143;52.396;16.950;2023-06-10T00:38:54;100550.28;;;18.64;58.19
80745;BME280;70143;52.396;16.950;2023-06-10T00:41:19;100552.25;;;18.60;58.26
80745;BME280;70143;52.396;16.950;2023-06-10T00:43:44;100551.50;;;18.58;58.64
80745;BME280;70143;52.396;16.950;2023-06-10T00:46:11;100551.06;;;18.52;59.18
80745;BME280;70143;52.396;16.950;2023-06-10T00:48:38;100556.66;;;18.47;59.46
80745;BME280;70143;52.396;16.950;2023-06-10T00:51:05;100554.97;;;18.46;59.85
80745;BME280;70143;52.396;16.950;2023-06-10T00:53:32;100551.94;;;18.38;60.72
80745;BME280;70143;52.396;16.950;2023-06-10T00:55:59;100553.19;;;18.32;61.23
80745;BME280;70143;52.396;16.950;2023-06-10T00:58:24;100570.31;;;18.26;61.48
80745;BME280;70143;52.396;16.950;2023-06-10T01:00:50;100563.69;;;18.19;61.98
80745;BME280;70143;52.396;16.950;2023-06-10T01:03:15;100565.78;;;18.14;62.61
80745;BME280;70143;52.396;16.950;2023-06-10T01:05:41;100559.38;;;18.04;62.95
80745;BME280;70143;52.396;16.950;2023-06-10T01:08:11;100566.81;;;18.12;62.79
80745;BME280;70143;52.396;16.950;2023-06-10T01:11:05;100568.34;;;18.01;63.27
80745;BME280;70143;52.396;16.950;2023-06-10T01:13:29;100572.59;;;18.04;63.64
80745;BME280;70143;52.396;16.950;2023-06-10T01:15:56;100571.09;;;18.00;64.06
80745;BME280;70143;52.396;16.950;2023-06-10T01:18:21;100576.00;;;18.06;63.75
80745;BME280;70143;52.396;16.950;2023-06-10T01:20:47;100568.63;;;17.97;64.07
80745;BME280;70143;52.396;16.950;2023-06-10T01:23:13;100572.44;;;17.93;64.15
80745;BME280;70143;52.396;16.950;2023-06-10T01:25:46;100589.16;;;17.93;64.48
80745;BME280;70143;52.396;16.950;2023-06-10T01:28:23;100588.03;;;17.97;64.40
80745;BME280;70143;52.396;16.950;2023-06-10T01:33:53;100588.13;;;17.96;64.36
80745;BME280;70143;52.396;16.950;2023-06-10T01:36:20;100586.97;;;18.00;64.22
80745;BME280;70143;52.396;16.950;2023-06-10T01:38:47;100590.66;;;17.97;64.46
80745;BME280;70143;52.396;16.950;2023-06-10T01:41:17;100584.03;;;17.90;65.22
80745;BME280;70143;52.396;16.950;2023-06-10T01:43:44;100585.47;;;17.96;64.66
80745;BME280;70143;52.396;16.950;2023-06-10T01:46:10;100586.94;;;17.85;64.89
80745;BME280;70143;52.396;16.950;2023-06-10T01:48:37;100588.13;;;17.96;64.65
80745;BME280;70143;52.396;16.950;2023-06-10T01:51:05;100587.25;;;17.95;65.00
80745;BME280;70143;52.396;16.950;2023-06-10T01:53:30;100598.53;;;17.99;64.97
80745;BME280;70143;52.396;16.950;2023-06-10T01:55:56;100598.13;;;18.05;64.74
80745;BME280;70143;52.396;16.950;2023-06-10T01:58:21;100593.41;;;18.10;64.38
80745;BME280;70143;52.396;16.950;2023-06-10T02:00:47;100601.06;;;18.15;64.41
80745;BME280;70143;52.396;16.950;2023-06-10T02:03:12;100605.03;;;18.22;64.13
80745;BME280;70143;52.396;16.950;2023-06-10T02:05:38;100597.72;;;18.25;63.90
80745;BME280;70143;52.396;16.950;2023-06-10T02:08:04;100600.38;;;18.25;64.16
80745;BME280;70143;52.396;16.950;2023-06-10T02:10:29;100601.16;;;18.27;64.17
80745;BME280;70143;52.396;16.950;2023-06-10T02:12:55;100604.72;;;18.26;64.03
80745;BME280;70143;52.396;16.950;2023-06-10T02:15:20;100602.09;;;18.26;63.97
80745;BME280;70143;52.396;16.950;2023-06-10T02:17:46;100597.81;;;18.24;64.28
80745;BME280;70143;52.396;16.950;2023-06-10T02:20:11;100600.38;;;18.25;64.04
80745;BME280;70143;52.396;16.950;2023-06-10T02:22:37;100598.69;;;18.24;64.20
80745;BME280;70143;52.396;16.950;2023-06-10T02:25:03;100599.09;;;18.18;64.26
80745;BME280;70143;52.396;16.950;2023-06-10T02:27:29;100594.72;;;18.17;64.03
80745;BME280;70143;52.396;16.950;2023-06-10T02:29:54;100608.41;;;18.24;63.88
80745;BME280;70143;52.396;16.950;2023-06-10T02:32:20;100608.41;;;18.24;64.07
80745;BME280;70143;52.396;16.950;2023-06-10T02:34:45;100612.22;;;18.20;64.23
80745;BME280;70143;52.396;16.950;2023-06-10T02:37:10;100613.72;;;18.24;64.07
80745;BME280;70143;52.396;16.950;2023-06-10T02:39:36;100611.09;;;18.09;64.31
80745;BME280;70143;52.396;16.950;2023-06-10T02:42:01;100613.72;;;18.09;64.31
80745;BME280;70143;52.396;16.950;2023-06-10T02:44:26;100611.53;;;18.16;63.95
80745;BME280;70143;52.396;16.950;2023-06-10T02:46:52;100616.84;;;18.16;63.53
80745;BME280;70143;52.396;16.950;2023-06-10T02:49:17;100614.75;;;18.07;63.64
80745;BME280;70143;52.396;16.950;2023-06-10T02:51:43;100611.00;;;18.11;63.42
80745;BME280;70143;52.396;16.950;2023-06-10T02:54:08;100616.84;;;18.16;62.96
80745;BME280;70143;52.396;16.950;2023-06-10T02:56:33;100622.81;;;18.20;62.70
80745;BME280;70143;52.396;16.950;2023-06-10T02:58:59;100626.09;;;18.23;62.34
80745;BME280;70143;52.396;16.950;2023-06-10T03:01:24;100628.75;;;18.23;62.37
80745;BME280;70143;52.396;16.950;2023-06-10T03:03:50;100613.53;;;18.27;62.08
80745;BME280;70143;52.396;16.950;2023-06-10T03:06:16;100628.56;;;18.26;61.43
80745;BME280;70143;52.396;16.950;2023-06-10T03:08:41;100623.72;;;18.33;61.46
80745;BME280;70143;52.396;16.950;2023-06-10T03:11:07;100624.22;;;18.40;61.34
80745;BME280;70143;52.396;16.950;2023-06-10T03:13:32;100626.97;;;18.38;60.74
80745;BME280;70143;52.396;16.950;2023-06-10T03:15:59;100631.56;;;18.35;60.48
80745;BME280;70143;52.396;16.950;2023-06-10T03:18:25;100627.50;;;18.43;60.39
80745;BME280;70143;52.396;16.950;2023-06-10T03:20:51;100628.53;;;18.41;60.09
80745;BME280;70143;52.396;16.950;2023-06-10T03:23:16;100639.22;;;18.39;59.38
80745;BME280;70143;52.396;16.950;2023-06-10T03:25:42;100635.44;;;18.43;59.54
80745;BME280;70143;52.396;16.950;2023-06-10T03:28:08;100634.41;;;18.46;58.91
80745;BME280;70143;52.396;16.950;2023-06-10T03:30:34;100640.47;;;18.48;58.72
80745;BME280;70143;52.396;16.950;2023-06-10T03:32:59;100645.00;;;18.46;58.05
80745;BME280;70143;52.396;16.950;2023-06-10T03:35:26;100642.16;;;18.49;57.12
80745;BME280;70143;52.396;16.950;2023-06-10T03:37:51;100649.28;;;18.49;57.02
80745;BME280;70143;52.396;16.950;2023-06-10T03:40:17;100642.72;;;18.54;57.09
80745;BME280;70143;52.396;16.950;2023-06-10T03:42:42;100649.34;;;18.61;56.45
80745;BME280;70143;52.396;16.950;2023-06-10T03:45:08;100647.63;;;18.60;55.75
80745;BME280;70143;52.396;16.950;2023-06-10T03:47:34;100656.22;;;18.78;55.95
80745;BME280;70143;52.396;16.950;2023-06-10T03:50:03;100657.28;;;18.76;55.21
80745;BME280;70143;52.396;16.950;2023-06-10T03:52:29;100672.63;;;18.85;54.99
80745;BME280;70143;52.396;16.950;2023-06-10T03:54:54;100664.56;;;18.87;54.96
80745;BME280;70143;52.396;16.950;2023-06-10T03:57:20;100662.91;;;18.84;54.06
80745;BME280;70143;52.396;16.950;2023-06-10T03:59:45;100669.09;;;18.70;53.68
80745;BME280;70143;52.396;16.950;2023-06-10T04:02:11;100675.72;;;18.77;53.80
80745;BME280;70143;52.396;16.950;2023-06-10T04:04:36;100684.06;;;18.86;53.24
80745;BME280;70143;52.396;16.950;2023-06-10T04:07:01;100682.41;;;18.83;53.27
80745;BME280;70143;52.396;16.950;2023-06-10T04:09:27;100693.72;;;18.87;53.40
80745;BME280;70143;52.396;16.950;2023-06-10T04:11:52;100693.22;;;18.94;53.07
80745;BME280;70143;52.396;16.950;2023-06-10T04:14:18;100690.78;;;18.91;52.88
80745;BME280;70143;52.396;16.950;2023-06-10T04:16:43;100694.38;;;18.76;53.49
80745;BME280;70143;52.396;16.950;2023-06-10T04:19:08;100702.78;;;18.83;53.50
80745;BME280;70143;52.396;16.950;2023-06-10T04:21:34;100707.72;;;18.89;53.19
80745;BME280;70143;52.396;16.950;2023-06-10T04:23:59;100699.47;;;18.79;52.66
80745;BME280;70143;52.396;16.950;2023-06-10T04:26:25;100722.97;;;18.85;52.32
80745;BME280;70143;52.396;16.950;2023-06-10T04:28:50;100727.09;;;18.89;52.40
80745;BME280;70143;52.396;16.950;2023-06-10T04:31:16;100720.97;;;18.89;53.08
80745;BME280;70143;52.396;16.950;2023-06-10T04:33:41;100718.22;;;18.90;53.45
80745;BME280;70143;52.396;16.950;2023-06-10T04:36:07;100726.16;;;18.90;53.37
80745;BME280;70143;52.396;16.950;2023-06-10T04:38:32;100735.06;;;19.04;53.42
80745;BME280;70143;52.396;16.950;2023-06-10T04:40:58;100722.47;;;18.93;53.86
80745;BME280;70143;52.396;16.950;2023-06-10T04:43:23;100725.34;;;18.90;54.42
80745;BME280;70143;52.396;16.950;2023-06-10T04:45:49;100727.00;;;19.05;53.82
80745;BME280;70143;52.396;16.950;2023-06-10T04:48:14;100725.97;;;19.08;53.26
80745;BME280;70143;52.396;16.950;2023-06-10T04:50:40;100726.09;;;19.19;52.28
80745;BME280;70143;52.396;16.950;2023-06-10T04:53:05;100737.63;;;19.32;51.60
80745;BME280;70143;52.396;16.950;2023-06-10T04:55:30;100737.66;;;19.45;51.00
80745;BME280;70143;52.396;16.950;2023-06-10T04:57:56;100713.78;;;19.45;51.00
80745;BME280;70143;52.396;16.950;2023-06-10T05:00:23;100741.41;;;19.56;50.71
80745;BME280;70143;52.396;16.950;2023-06-10T05:02:48;100756.53;;;19.41;50.87
80745;BME280;70143;52.396;16.950;2023-06-10T05:05:14;100749.28;;;19.57;50.99
80745;BME280;70143;52.396;16.950;2023-06-10T05:07:39;100757.00;;;19.47;50.71
80745;BME280;70143;52.396;16.950;2023-06-10T05:10:06;100758.69;;;19.48;50.69
80745;BME280;70143;52.396;16.950;2023-06-10T05:12:32;100775.16;;;19.54;50.44
80745;BME280;70143;52.396;16.950;2023-06-10T05:14:57;100763.91;;;19.50;50.38
80745;BME280;70143;52.396;16.950;2023-06-10T05:17:23;100772.66;;;19.65;50.36
80745;BME280;70143;52.396;16.950;2023-06-10T05:19:49;100774.78;;;19.87;50.08
80745;BME280;70143;52.396;16.950;2023-06-10T05:22:14;100781.22;;;19.83;49.72
80745;BME280;70143;52.396;16.950;2023-06-10T05:24:39;100768.72;;;19.85;49.05
80745;BME280;70143;52.396;16.950;2023-06-10T05:27:05;100773.63;;;19.91;49.20
80745;BME280;70143;52.396;16.950;2023-06-10T05:29:30;100763.69;;;20.08;48.71
80745;BME280;70143;52.396;16.950;2023-06-10T05:31:56;100774.50;;;20.05;48.59
80745;BME280;70143;52.396;16.950;2023-06-10T05:34:21;100783.97;;;20.21;48.49
80745;BME280;70143;52.396;16.950;2023-06-10T05:36:47;100799.28;;;20.31;48.03
80745;BME280;70143;52.396;16.950;2023-06-10T05:39:12;100784.19;;;20.18;48.24
80745;BME280;70143;52.396;16.950;2023-06-10T05:41:40;100765.19;;;20.25;48.25
80745;BME280;70143;52.396;16.950;2023-06-10T05:44:05;100788.13;;;20.38;47.96
80745;BME280;70143;52.396;16.950;2023-06-10T05:46:30;100787.50;;;20.48;47.95
80745;BME280;70143;52.396;16.950;2023-06-10T05:48:56;100796.34;;;20.74;47.57
80745;BME280;70143;52.396;16.950;2023-06-10T05:51:21;100787.75;;;20.70;47.74
80745;BME280;70143;52.396;16.950;2023-06-10T05:53:47;100794.38;;;21.15;46.96
80745;BME280;70143;52.396;16.950;2023-06-10T05:56:13;100782.31;;;21.35;46.21
80745;BME280;70143;52.396;16.950;2023-06-10T05:58:39;100790.56;;;21.43;45.97
80745;BME280;70143;52.396;16.950;2023-06-10T06:01:04;100799.88;;;21.61;45.75
80745;BME280;70143;52.396;16.950;2023-06-10T06:03:30;100779.09;;;21.67;45.28
80745;BME280;70143;52.396;16.950;2023-06-10T06:05:55;100772.69;;;21.69;44.79
80745;BME280;70143;52.396;16.950;2023-06-10T06:08:21;100785.53;;;21.75;44.93
80745;BME280;70143;52.396;16.950;2023-06-10T06:10:46;100785.84;;;21.95;44.90
80745;BME280;70143;52.396;16.950;2023-06-10T06:13:11;100784.25;;;22.17;44.47
80745;BME280;70143;52.396;16.950;2023-06-10T06:15:37;100792.50;;;22.25;44.53
80745;BME280;70143;52.396;16.950;2023-06-10T06:18:02;100799.09;;;22.32;43.82
80745;BME280;70143;52.396;16.950;2023-06-10T06:20:28;100784.97;;;22.30;44.03
80745;BME280;70143;52.396;16.950;2023-06-10T06:22:54;100794.47;;;22.34;43.33
80745;BME280;70143;52.396;16.950;2023-06-10T06:25:20;100781.44;;;22.42;43.12
80745;BME280;70143;52.396;16.950;2023-06-10T06:27:45;100780.94;;;22.48;43.20
80745;BME280;70143;52.396;16.950;2023-06-10T06:30:10;100788.94;;;22.48;43.25
80745;BME280;70143;52.396;16.950;2023-06-10T06:32:36;100786.03;;;22.63;42.91
80745;BME280;70143;52.396;16.950;2023-06-10T06:35:02;100787.97;;;22.72;42.72
80745;BME280;70143;52.396;16.950;2023-06-10T06:37:28;100797.31;;;22.78;43.01
80745;BME280;70143;52.396;16.950;2023-06-10T06:39:53;100790.41;;;22.86;42.15
80745;BME280;70143;52.396;16.950;2023-06-10T06:42:20;100787.13;;;22.83;42.00
80745;BME280;70143;52.396;16.950;2023-06-10T06:44:46;100800.97;;;22.88;42.02
80745;BME280;70143;52.396;16.950;2023-06-10T06:47:11;100804.22;;;23.03;42.06
80745;BME280;70143;52.396;16.950;2023-06-10T06:49:38;100800.34;;;22.96;41.84
80745;BME280;70143;52.396;16.950;2023-06-10T06:52:04;100803.41;;;23.14;41.92
80745;BME280;70143;52.396;16.950;2023-06-10T06:54:30;100807.16;;;23.11;41.66
80745;BME280;70143;52.396;16.950;2023-06-10T06:56:56;100817.69;;;23.24;41.40
80745;BME280;70143;52.396;16.950;2023-06-10T06:59:22;100810.06;;;23.19;41.70
80745;BME280;70143;52.396;16.950;2023-06-10T07:01:48;100814.78;;;23.16;42.10
80745;BME280;70143;52.396;16.950;2023-06-10T07:04:15;100813.44;;;23.10;41.94
80745;BME280;70143;52.396;16.950;2023-06-10T07:06:41;100813.34;;;23.23;42.12
80745;BME280;70143;52.396;16.950;2023-06-10T07:09:07;100818.06;;;23.19;42.09
80745;BME280;70143;52.396;16.950;2023-06-10T07:11:33;100822.28;;;23.33;42.15
80745;BME280;70143;52.396;16.950;2023-06-10T07:13:58;100810.16;;;23.29;42.12
80745;BME280;70143;52.396;16.950;2023-06-10T07:16:23;100814.13;;;23.46;42.53
80745;BME280;70143;52.396;16.950;2023-06-10T07:18:49;100820.41;;;23.56;41.57
80745;BME280;70143;52.396;16.950;2023-06-10T07:21:14;100822.59;;;23.63;41.84
80745;BME280;70143;52.396;16.950;2023-06-10T07:23:43;100807.91;;;23.57;41.86
80745;BME280;70143;52.396;16.950;2023-06-10T07:26:08;100816.59;;;23.70;41.58
80745;BME280;70143;52.396;16.950;2023-06-10T07:28:34;100808.34;;;23.85;41.38
80745;BME280;70143;52.396;16.950;2023-06-10T07:30:59;100814.75;;;23.82;40.19
80745;BME280;70143;52.396;16.950;2023-06-10T07:33:24;100810.13;;;23.84;40.30
80745;BME280;70143;52.396;16.950;2023-06-10T07:35:51;100807.44;;;23.96;39.95
80745;BME280;70143;52.396;16.950;2023-06-10T07:38:17;100809.97;;;23.97;40.22
80745;BME280;70143;52.396;16.950;2023-06-10T07:40:42;100825.88;;;23.99;39.72
80745;BME280;70143;52.396;16.950;2023-06-10T07:43:07;100810.03;;;24.07;39.92
80745;BME280;70143;52.396;16.950;2023-06-10T07:45:33;100812.00;;;24.05;39.05
80745;BME280;70143;52.396;16.950;2023-06-10T07:47:58;100807.84;;;24.12;39.26
80745;BME280;70143;52.396;16.950;2023-06-10T07:50:24;100813.72;;;24.06;39.25
80745;BME280;70143;52.396;16.950;2023-06-10T07:52:52;100806.16;;;24.11;39.88
80745;BME280;70143;52.396;16.950;2023-06-10T07:55:17;100813.06;;;24.35;39.11
80745;BME280;70143;52.396;16.950;2023-06-10T07:57:43;100813.69;;;24.48;38.85
80745;BME280;70143;52.396;16.950;2023-06-10T08:00:09;100802.00;;;24.60;38.48
80745;BME280;70143;52.396;16.950;2023-06-10T08:02:34;100802.81;;;24.61;38.57
80745;BME280;70143;52.396;16.950;2023-06-10T08:05:00;100798.66;;;24.68;38.27
80745;BME280;70143;52.396;16.950;2023-06-10T08:07:25;100814.72;;;24.78;37.97
80745;BME280;70143;52.396;16.950;2023-06-10T08:09:50;100810.69;;;24.93;37.01
80745;BME280;70143;52.396;16.950;2023-06-10T08:12:16;100810.88;;;25.02;36.96
80745;BME280;70143;52.396;16.950;2023-06-10T08:14:41;100810.34;;;25.08;36.41
80745;BME280;70143;52.396;16.950;2023-06-10T08:17:07;100805.59;;;25.21;36.44
80745;BME280;70143;52.396;16.950;2023-06-10T08:19:32;100810.16;;;25.30;35.55
80745;BME280;70143;52.396;16.950;2023-06-10T08:21:57;100813.56;;;25.42;35.85
80745;BME280;70143;52.396;16.950;2023-06-10T08:24:23;100807.25;;;25.53;35.50
80745;BME280;70143;52.396;16.950;2023-06-10T08:26:48;100821.19;;;25.57;34.73
80745;BME280;70143;52.396;16.950;2023-06-10T08:29:14;100820.34;;;25.66;34.58
80745;BME280;70143;52.396;16.950;2023-06-10T08:31:43;100820.38;;;25.76;34.54
80745;BME280;70143;52.396;16.950;2023-06-10T08:34:09;100814.44;;;25.92;34.53
80745;BME280;70143;52.396;16.950;2023-06-10T08:36:34;100817.69;;;25.85;34.13
80745;BME280;70143;52.396;16.950;2023-06-10T08:38:59;100817.81;;;25.84;33.83
80745;BME280;70143;52.396;16.950;2023-06-10T08:41:28;100815.16;;;25.94;33.92
80745;BME280;70143;52.396;16.950;2023-06-10T08:44:01;100805.16;;;25.86;33.46
80745;BME280;70143;52.396;16.950;2023-06-10T08:46:31;100806.59;;;26.00;33.57
80745;BME280;70143;52.396;16.950;2023-06-10T08:49:05;100809.97;;;26.12;33.56
80745;BME280;70143;52.396;16.950;2023-06-10T08:51:32;100816.81;;;26.34;33.09
80745;BME280;70143;52.396;16.950;2023-06-10T08:54:02;100815.56;;;26.38;32.35
80745;BME280;70143;52.396;16.950;2023-06-10T08:56:32;100806.81;;;26.26;31.82
80745;BME280;70143;52.396;16.950;2023-06-10T08:59:01;100813.13;;;26.45;31.14
80745;BME280;70143;52.396;16.950;2023-06-10T09:01:27;100809.19;;;26.49;30.31
80745;BME280;70143;52.396;16.950;2023-06-10T09:03:55;100809.47;;;26.46;29.83
80745;BME280;70143;52.396;16.950;2023-06-10T09:06:22;100805.38;;;26.51;28.75
80745;BME280;70143;52.396;16.950;2023-06-10T09:08:48;100800.94;;;26.60;29.17
80745;BME280;70143;52.396;16.950;2023-06-10T09:11:13;100812.25;;;26.64;28.43
80745;BME280;70143;52.396;16.950;2023-06-10T09:13:38;100808.66;;;26.83;28.46
80745;BME280;70143;52.396;16.950;2023-06-10T09:16:04;100809.41;;;26.75;27.43
80745;BME280;70143;52.396;16.950;2023-06-10T09:18:29;100814.03;;;26.83;26.38
80745;BME280;70143;52.396;16.950;2023-06-10T09:20:57;100820.84;;;26.77;26.56
80745;BME280;70143;52.396;16.950;2023-06-10T09:23:22;100815.63;;;26.76;26.81
80745;BME280;70143;52.396;16.950;2023-06-10T09:25:56;100820.09;;;26.85;26.13
80745;BME280;70143;52.396;16.950;2023-06-10T09:28:21;100831.69;;;26.85;26.32
80745;BME280;70143;52.396;16.950;2023-06-10T09:30:47;100816.28;;;26.87;25.82
80745;BME280;70143;52.396;16.950;2023-06-10T09:33:14;100821.59;;;26.97;25.73
80745;BME280;70143;52.396;16.950;2023-06-10T09:35:48;100822.50;;;27.16;25.21
80745;BME280;70143;52.396;16.950;2023-06-10T09:38:19;100815.25;;;27.26;24.73
80745;BME280;70143;52.396;16.950;2023-06-10T09:40:49;100804.19;;;27.29;25.17
80745;BME280;70143;52.396;16.950;2023-06-10T09:43:15;100803.56;;;27.45;24.62
80745;BME280;70143;52.396;16.950;2023-06-10T09:45:40;100816.25;;;27.53;24.50
80745;BME280;70143;52.396;16.950;2023-06-10T09:48:05;100795.88;;;27.50;24.00
80745;BME280;70143;52.396;16.950;2023-06-10T09:50:34;100804.56;;;27.62;24.56
80745;BME280;70143;52.396;16.950;2023-06-10T09:52:59;100791.28;;;27.60;24.42
80745;BME280;70143;52.396;16.950;2023-06-10T09:55:25;100806.09;;;27.65;24.63
80745;BME280;70143;52.396;16.950;2023-06-10T09:57:53;100791.91;;;27.72;24.39
80745;BME280;70143;52.396;16.950;2023-06-10T10:00:19;100786.69;;;27.71;24.59
80745;BME280;70143;52.396;16.950;2023-06-10T10:02:51;100784.59;;;27.83;24.80
80745;BME280;70143;52.396;16.950;2023-06-10T10:05:19;100793.06;;;27.88;24.63
80745;BME280;70143;52.396;16.950;2023-06-10T10:07:46;100799.38;;;27.96;24.75
80745;BME280;70143;52.396;16.950;2023-06-10T10:10:13;100794.88;;;27.87;25.15
80745;BME280;70143;52.396;16.950;2023-06-10T10:12:39;100793.88;;;27.88;24.81
80745;BME280;70143;52.396;16.950;2023-06-10T10:15:07;100801.03;;;27.97;24.15
80745;BME280;70143;52.396;16.950;2023-06-10T10:17:34;100801.44;;;28.03;24.43
80745;BME280;70143;52.396;16.950;2023-06-10T10:20:04;100784.13;;;28.05;24.62
80745;BME280;70143;52.396;16.950;2023-06-10T10:22:38;100800.72;;;28.01;24.58
80745;BME280;70143;52.396;16.950;2023-06-10T10:25:11;100784.13;;;28.05;24.24
80745;BME280;70143;52.396;16.950;2023-06-10T10:27:57;100800.22;;;28.23;24.31
80745;BME280;70143;52.396;16.950;2023-06-10T10:30:24;100797.69;;;28.22;24.13
80745;BME280;70143;52.396;16.950;2023-06-10T10:33:00;100792.13;;;28.15;23.50
80745;BME280;70143;52.396;16.950;2023-06-10T10:35:29;100785.31;;;28.03;23.04
80745;BME280;70143;52.396;16.950;2023-06-10T10:37:55;100786.91;;;27.95;22.45
80745;BME280;70143;52.396;16.950;2023-06-10T10:40:21;100782.16;;;28.07;22.74
80745;BME280;70143;52.396;16.950;2023-06-10T10:42:48;100790.72;;;27.93;23.25
80745;BME280;70143;52.396;16.950;2023-06-10T10:45:14;100786.91;;;27.95;22.88
80745;BME280;70143;52.396;16.950;2023-06-10T10:47:40;100788.91;;;27.93;22.98
80745;BME280;70143;52.396;16.950;2023-06-10T10:50:14;100789.81;;;27.84;23.21
80745;BME280;70143;52.396;16.950;2023-06-10T10:53:04;100785.66;;;27.90;23.28
80745;BME280;70143;52.396;16.950;2023-06-10T10:55:30;100776.13;;;27.95;23.44
80745;BME280;70143;52.396;16.950;2023-06-10T11:00:31;100783.50;;;28.11;23.13
80745;BME280;70143;52.396;16.950;2023-06-10T11:03:05;100789.31;;;28.25;23.00
80745;BME280;70143;52.396;16.950;2023-06-10T11:08:04;100782.59;;;28.21;23.15
80745;BME280;70143;52.396;16.950;2023-06-10T11:10:31;100788.47;;;28.50;23.01
80745;BME280;70143;52.396;16.950;2023-06-10T11:12:56;100789.44;;;28.67;23.55
80745;BME280;70143;52.396;16.950;2023-06-10T11:15:23;100790.69;;;28.81;23.11
80745;BME280;70143;52.396;16.950;2023-06-10T11:20:56;100779.59;;;28.58;24.17
80745;BME280;70143;52.396;16.950;2023-06-10T11:26:19;100773.22;;;27.89;25.07
80745;BME280;70143;52.396;16.950;2023-06-10T11:34:08;100780.34;;;28.60;24.39
80745;BME280;70143;52.396;16.950;2023-06-10T11:36:34;100764.94;;;28.79;24.18
80745;BME280;70143;52.396;16.950;2023-06-10T11:39:03;100775.22;;;28.92;24.02
80745;BME280;70143;52.396;16.950;2023-06-10T11:41:31;100768.91;;;29.17;23.25
80745;BME280;70143;52.396;16.950;2023-06-10T11:44:02;100767.03;;;29.52;23.06
80745;BME280;70143;52.396;16.950;2023-06-10T11:46:27;100769.72;;;29.61;22.82
80745;BME280;70143;52.396;16.950;2023-06-10T11:48:58;100770.75;;;29.68;23.00
80745;BME280;70143;52.396;16.950;2023-06-10T11:51:29;100776.41;;;29.32;22.96
80745;BME280;70143;52.396;16.950;2023-06-10T11:53:55;100759.03;;;28.75;23.70
80745;BME280;70143;52.396;16.950;2023-06-10T11:56:24;100753.84;;;28.82;23.73
80745;BME280;70143;52.396;16.950;2023-06-10T11:58:55;100765.94;;;28.52;23.87
80745;BME280;70143;52.396;16.950;2023-06-10T12:01:22;100759.63;;;28.95;22.93
80745;BME280;70143;52.396;16.950;2023-06-10T12:03:47;100756.09;;;29.03;22.98
80745;BME280;70143;52.396;16.950;2023-06-10T12:06:13;100755.50;;;28.48;23.54
80745;BME280;70143;52.396;16.950;2023-06-10T12:08:42;100755.66;;;28.47;23.66
80745;BME280;70143;52.396;16.950;2023-06-10T12:11:08;100764.53;;;28.39;23.57
80745;BME280;70143;52.396;16.950;2023-06-10T12:13:33;100757.88;;;28.52;23.36
80745;BME280;70143;52.396;16.950;2023-06-10T12:16:11;100760.22;;;28.46;24.42
80745;BME280;70143;52.396;16.950;2023-06-10T12:18:36;100762.97;;;28.97;23.41
80745;BME280;70143;52.396;16.950;2023-06-10T12:21:02;100757.38;;;29.33;22.50
80745;BME280;70143;52.396;16.950;2023-06-10T12:23:27;100759.09;;;29.43;22.12
80745;BME280;70143;52.396;16.950;2023-06-10T12:25:53;100762.28;;;29.46;23.14
80745;BME280;70143;52.396;16.950;2023-06-10T12:28:23;100763.31;;;29.53;22.65
80745;BME280;70143;52.396;16.950;2023-06-10T12:30:49;100755.56;;;29.75;22.26
80745;BME280;70143;52.396;16.950;2023-06-10T12:33:19;100756.59;;;29.99;22.02
80745;BME280;70143;52.396;16.950;2023-06-10T12:35:52;100757.25;;;30.09;21.87
80745;BME280;70143;52.396;16.950;2023-06-10T12:38:22;100764.81;;;29.48;22.02
80745;BME280;70143;52.396;16.950;2023-06-10T12:40:47;100756.97;;;29.20;22.33
80745;BME280;70143;52.396;16.950;2023-06-10T12:43:13;100751.69;;;29.61;21.91
80745;BME280;70143;52.396;16.950;2023-06-10T12:45:39;100758.94;;;29.77;21.71
80745;BME280;70143;52.396;16.950;2023-06-10T12:48:17;100744.47;;;29.62;21.66
80745;BME280;70143;52.396;16.950;2023-06-10T12:50:43;100750.16;;;29.75;21.21
80745;BME280;70143;52.396;16.950;2023-06-10T12:53:11;100744.47;;;29.95;20.99
80745;BME280;70143;52.396;16.950;2023-06-10T12:55:36;100738.72;;;29.73;21.19